createdAt,value
2023-02-25T00:01:25.242Z,4.60
2023-02-25T00:04:00.851Z,4.50
2023-02-25T00:06:27.624Z,4.80
2023-02-25T00:08:55.445Z,4.60
2023-02-25T00:11:23.873Z,4.70
2023-02-25T00:16:19.194Z,4.50
2023-02-25T00:21:15.862Z,4.50
2023-02-25T00:23:44.760Z,4.50
2023-02-25T00:26:12.171Z,4.50
2023-02-25T00:31:12.233Z,4.50
2023-02-25T00:36:29.200Z,4.60
2023-02-25T00:38:57.483Z,4.50
2023-02-25T00:41:27.149Z,4.50
2023-02-25T00:43:59.468Z,4.50
2023-02-25T00:46:26.827Z,4.50
2023-02-25T00:51:26.538Z,4.50
2023-02-25T00:53:56.349Z,4.50
2023-02-25T00:56:25.171Z,4.50
2023-02-25T00:58:53.171Z,4.50
2023-02-25T01:01:28.714Z,4.50
2023-02-25T01:03:57.331Z,4.50
2023-02-25T01:06:26.302Z,4.50
2023-02-25T01:11:27.012Z,4.50
2023-02-25T01:13:54.565Z,4.40
2023-02-25T01:16:24.652Z,4.50
2023-02-25T01:18:59.955Z,4.60
2023-02-25T01:21:29.709Z,4.50
2023-02-25T01:23:59.312Z,4.50
2023-02-25T01:26:28.176Z,4.60
2023-02-25T01:28:57.597Z,4.60
2023-02-25T01:34:01.095Z,4.60
2023-02-25T01:36:30.488Z,4.60
2023-02-25T01:38:58.166Z,4.70
2023-02-25T01:41:26.245Z,4.50
2023-02-25T01:44:19.433Z,4.50
2023-02-25T01:46:49.232Z,4.50
2023-02-25T01:51:45.792Z,4.60
2023-02-25T01:54:13.859Z,4.50
2023-02-25T01:56:44.518Z,4.50
2023-02-25T01:59:11.940Z,4.60
2023-02-25T02:01:40.410Z,4.60
2023-02-25T02:04:10.461Z,4.60
2023-02-25T02:06:43.119Z,4.60
2023-02-25T02:09:13.800Z,4.60
2023-02-25T02:11:41.497Z,4.60
2023-02-25T02:14:11.068Z,4.60
2023-02-25T02:16:58.266Z,4.60
2023-02-25T02:22:18.403Z,4.60
2023-02-25T02:25:09.422Z,4.50
2023-02-25T02:28:06.970Z,4.50
2023-02-25T02:30:57.688Z,4.50
2023-02-25T02:33:44.376Z,4.50
2023-02-25T02:36:42.469Z,4.50
2023-02-25T02:39:18.393Z,4.40
2023-02-25T02:41:58.974Z,4.50
2023-02-25T02:44:54.287Z,4.50
2023-02-25T02:47:29.971Z,4.40
2023-02-25T02:50:14.053Z,4.30
2023-02-25T02:52:50.343Z,4.40
2023-02-25T02:55:32.060Z,4.40
2023-02-25T02:58:04.862Z,4.20
2023-02-25T03:00:37.474Z,4.40
2023-02-25T03:03:22.334Z,4.40
2023-02-25T03:05:52.865Z,4.50
2023-02-25T03:08:26.816Z,4.50
2023-02-25T03:10:53.577Z,4.50
2023-02-25T03:15:50.006Z,4.50
2023-02-25T03:18:31.662Z,4.50
2023-02-25T03:21:00.383Z,4.60
2023-02-25T03:23:31.088Z,4.60
2023-02-25T03:26:26.572Z,4.50
2023-02-25T03:31:56.410Z,4.50
2023-02-25T03:34:37.629Z,4.50
2023-02-25T03:37:10.123Z,4.60
2023-02-25T03:39:40.249Z,4.60
2023-02-25T03:42:12.255Z,4.60
2023-02-25T03:44:53.592Z,4.50
2023-02-25T03:47:22.851Z,4.60
2023-02-25T03:50:02.838Z,4.40
2023-02-25T03:52:30.658Z,4.50
2023-02-25T03:57:37.635Z,4.60
2023-02-25T04:00:15.531Z,4.40
2023-02-25T04:02:42.647Z,4.50
2023-02-25T04:07:39.706Z,4.50
2023-02-25T04:10:08.786Z,4.50
2023-02-25T04:15:03.197Z,4.60
2023-02-25T04:34:41.206Z,4.60
2023-02-25T04:39:37.361Z,4.40
2023-02-25T04:51:52.796Z,4.60
2023-02-25T04:54:21.245Z,4.60
2023-02-25T04:56:48.475Z,4.60
2023-02-25T05:01:43.333Z,4.60
2023-02-25T05:04:10.295Z,4.60
2023-02-25T05:13:59.575Z,4.40
2023-02-25T05:21:26.045Z,4.40
2023-02-25T05:23:54.019Z,4.50
2023-02-25T05:26:23.469Z,4.50
2023-02-25T05:28:56.619Z,4.50
2023-02-25T05:33:52.666Z,4.40
2023-02-25T05:36:19.814Z,4.30
2023-02-25T05:41:15.423Z,4.40
2023-02-25T05:43:42.468Z,4.30
2023-02-25T05:48:40.477Z,4.20
2023-02-25T05:51:14.894Z,4.20
2023-02-25T05:56:12.482Z,4.20
2023-02-25T06:01:11.275Z,4.20
2023-02-25T06:03:38.730Z,4.30
2023-02-25T06:06:06.896Z,4.40
2023-02-25T06:11:02.088Z,4.20
2023-02-25T06:13:28.848Z,4.20
2023-02-25T06:23:16.698Z,4.20
2023-02-25T06:35:34.272Z,4.10
2023-02-25T06:38:01.141Z,4.10
2023-02-25T07:12:26.356Z,4.30
2023-02-25T07:19:47.118Z,4.30
2023-02-25T07:22:18.472Z,4.30
2023-02-25T07:24:45.505Z,4.40
2023-02-25T07:27:15.164Z,4.50
2023-02-25T07:29:41.863Z,4.50
2023-02-25T07:34:37.374Z,4.50
2023-02-25T07:41:58.021Z,4.40
2023-02-25T08:04:06.291Z,4.60
2023-02-25T08:06:38.232Z,4.60
2023-02-25T08:09:11.103Z,4.60
2023-02-25T08:11:39.222Z,4.70
2023-02-25T08:16:33.383Z,4.70
2023-02-25T08:23:54.767Z,4.80
2023-02-25T08:26:22.678Z,4.80
2023-02-25T08:28:50.783Z,4.80
2023-02-25T08:31:17.933Z,4.90
2023-02-25T08:33:49.359Z,5.00
2023-02-25T08:36:20.403Z,5.00
2023-02-25T08:43:41.666Z,5.10
2023-02-25T08:46:09.370Z,5.20
2023-02-25T08:51:08.366Z,5.30
2023-02-25T08:53:38.082Z,5.30
2023-02-25T08:56:09.714Z,5.30
2023-02-25T09:01:12.804Z,5.40
2023-02-25T09:03:52.715Z,5.40
2023-02-25T09:06:25.472Z,5.40
2023-02-25T09:08:52.806Z,5.40
2023-02-25T09:16:19.060Z,5.40
2023-02-25T09:18:47.219Z,5.40
2023-02-25T09:28:36.626Z,5.40
2023-02-25T09:33:32.173Z,5.40
2023-02-25T09:36:08.418Z,5.40
2023-02-25T09:38:39.492Z,5.10
2023-02-25T09:41:40.119Z,5.20
2023-02-25T09:44:20.394Z,5.30
2023-02-25T09:46:55.030Z,5.30
2023-02-25T09:49:32.014Z,5.30
2023-02-25T09:52:12.999Z,5.30
2023-02-25T09:54:45.673Z,5.20
2023-02-25T09:57:18.967Z,5.20
2023-02-25T09:59:47.354Z,5.30
2023-02-25T10:02:39.072Z,5.30
2023-02-25T10:05:28.466Z,5.30
2023-02-25T10:08:07.430Z,5.30
2023-02-25T10:10:43.827Z,5.30
2023-02-25T10:13:26.423Z,5.40
2023-02-25T10:16:11.501Z,5.30
2023-02-25T10:18:50.992Z,5.30
2023-02-25T10:21:57.175Z,5.40
2023-02-25T10:24:44.150Z,5.50
2023-02-25T10:27:33.731Z,5.50
2023-02-25T10:30:25.004Z,5.50
2023-02-25T10:32:53.135Z,5.60
2023-02-25T10:35:28.910Z,5.40
2023-02-25T10:40:24.431Z,5.00
2023-02-25T10:42:54.319Z,4.80
2023-02-25T10:45:25.917Z,4.00
2023-02-25T10:48:07.753Z,4.30
2023-02-25T10:53:15.412Z,4.20
2023-02-25T10:55:52.120Z,4.10
2023-02-25T10:58:37.267Z,4.10
2023-02-25T11:01:13.902Z,4.00
2023-02-25T11:03:54.432Z,3.90
2023-02-25T11:06:27.837Z,4.00
2023-02-25T11:08:58.331Z,4.00
2023-02-25T11:11:32.265Z,4.00
2023-02-25T11:14:05.505Z,4.10
2023-02-25T11:16:36.633Z,4.30
2023-02-25T11:19:27.344Z,4.30
2023-02-25T11:21:55.607Z,4.40
2023-02-25T11:24:33.311Z,4.50
2023-02-25T11:27:02.227Z,4.60
2023-02-25T11:29:37.491Z,4.70
2023-02-25T11:32:15.121Z,4.80
2023-02-25T11:34:51.855Z,4.80
2023-02-25T11:37:39.678Z,4.80
2023-02-25T11:40:31.546Z,4.90
2023-02-25T11:43:18.386Z,4.90
2023-02-25T11:46:11.993Z,4.80
2023-02-25T11:51:19.117Z,4.80
2023-02-25T11:54:23.399Z,4.90
2023-02-25T11:56:55.285Z,4.90
2023-02-25T11:59:37.154Z,4.90
2023-02-25T12:02:35.693Z,4.90
2023-02-25T12:05:23.763Z,4.80
2023-02-25T12:08:17.174Z,4.80
2023-02-25T12:13:54.657Z,4.90
2023-02-25T12:16:59.888Z,4.80
2023-02-25T12:19:48.192Z,4.70
2023-02-25T12:22:50.340Z,4.70
2023-02-25T12:25:43.278Z,4.70
2023-02-25T12:28:50.853Z,4.70
2023-02-25T12:32:12.872Z,4.80
2023-02-25T12:35:00.363Z,4.80
2023-02-25T12:37:38.899Z,4.90
2023-02-25T12:40:27.383Z,4.90
2023-02-25T12:43:31.220Z,5.00
2023-02-25T12:46:27.845Z,5.00
2023-02-25T12:49:14.675Z,4.90
2023-02-25T12:51:54.826Z,5.00
2023-02-25T12:54:51.672Z,4.90
2023-02-25T12:57:34.331Z,4.90
2023-02-25T13:00:44.638Z,4.80
2023-02-25T13:03:48.831Z,4.70
2023-02-25T13:06:33.688Z,4.70
2023-02-25T13:09:21.600Z,4.80
2023-02-25T13:12:23.139Z,4.70
2023-02-25T13:15:04.384Z,4.70
2023-02-25T13:18:09.553Z,4.90
2023-02-25T13:20:47.250Z,4.70
2023-02-25T13:23:34.350Z,4.70
2023-02-25T13:29:01.992Z,4.60
2023-02-25T13:32:13.202Z,4.60
2023-02-25T13:34:46.866Z,4.70
2023-02-25T13:37:38.015Z,4.60
2023-02-25T13:40:20.533Z,4.70
2023-02-25T13:42:55.747Z,4.60
2023-02-25T13:45:38.465Z,4.60
2023-02-25T13:48:18.934Z,4.60
2023-02-25T13:51:24.563Z,4.60
2023-02-25T13:54:10.442Z,4.60
2023-02-25T13:57:14.264Z,4.70
2023-02-25T14:00:04.090Z,4.70
2023-02-25T14:03:05.732Z,4.70
2023-02-25T14:06:15.688Z,4.70
2023-02-25T14:09:02.378Z,4.70
2023-02-25T14:12:12.383Z,4.80
2023-02-25T14:17:24.914Z,4.80
2023-02-25T14:20:49.370Z,4.80
2023-02-25T14:23:37.407Z,4.80
2023-02-25T14:26:22.861Z,4.80
2023-02-25T14:29:11.291Z,4.60
2023-02-25T14:32:10.082Z,4.70
2023-02-25T14:35:02.352Z,4.60
2023-02-25T14:37:55.561Z,4.60
2023-02-25T14:40:31.676Z,4.60
2023-02-25T14:43:13.438Z,4.70
2023-02-25T14:45:53.879Z,4.60
2023-02-25T14:48:44.353Z,4.60
2023-02-25T14:51:49.341Z,4.50
2023-02-25T14:54:39.694Z,4.50
2023-02-25T14:57:20.467Z,4.60
2023-02-25T15:00:04.792Z,4.50
2023-02-25T15:03:17.297Z,4.50
2023-02-25T15:06:06.620Z,4.50
2023-02-25T15:08:57.789Z,4.50
2023-02-25T15:11:46.433Z,4.60
2023-02-25T15:14:42.946Z,4.70
2023-02-25T15:17:40.786Z,4.60
2023-02-25T15:20:30.263Z,4.60
2023-02-25T15:23:10.207Z,4.60
2023-02-25T15:25:47.143Z,4.60
2023-02-25T15:28:31.812Z,4.60
2023-02-25T15:33:36.135Z,4.70
2023-02-25T15:36:22.220Z,4.60
2023-02-25T15:38:50.431Z,4.60
2023-02-25T15:41:29.393Z,4.60
2023-02-25T15:44:08.202Z,4.70
2023-02-25T15:49:12.304Z,4.60
2023-02-25T15:51:47.021Z,4.50
2023-02-25T15:54:29.149Z,4.50
2023-02-25T15:56:58.084Z,4.50
2023-02-25T15:59:43.102Z,4.50
2023-02-25T16:02:33.215Z,4.50
2023-02-25T16:05:16.643Z,4.50
2023-02-25T16:07:50.038Z,4.40
2023-02-25T16:10:27.715Z,4.50
2023-02-25T16:12:57.380Z,4.30
2023-02-25T16:15:39.294Z,4.40
2023-02-25T16:18:15.079Z,4.30
2023-02-25T16:20:48.789Z,4.30
2023-02-25T16:23:16.485Z,4.20
2023-02-25T16:26:30.563Z,4.20
2023-02-25T16:29:10.578Z,4.10
2023-02-25T16:31:55.949Z,4.10
2023-02-25T16:34:41.722Z,4.00
2023-02-25T16:37:34.937Z,3.90
2023-02-25T16:40:02.000Z,5.00
2023-02-25T16:42:32.783Z,3.90
2023-02-25T16:45:03.988Z,3.90
2023-02-25T16:47:36.634Z,3.80
2023-02-25T16:50:13.750Z,3.80
2023-02-25T16:52:48.318Z,3.70
2023-02-25T16:55:23.298Z,3.70
2023-02-25T16:58:14.801Z,3.70
2023-02-25T17:00:59.869Z,3.80
2023-02-25T17:03:30.937Z,3.80
2023-02-25T17:06:07.248Z,3.70
2023-02-25T17:08:35.187Z,3.40
2023-02-25T17:11:04.740Z,3.60
2023-02-25T17:13:37.570Z,3.70
2023-02-25T17:16:06.173Z,3.80
2023-02-25T17:18:39.896Z,3.70
2023-02-25T17:23:41.104Z,3.70
2023-02-25T17:26:11.506Z,3.70
2023-02-25T17:31:12.813Z,3.70
2023-02-25T17:33:49.246Z,3.60
2023-02-25T17:36:19.462Z,3.60
2023-02-25T17:38:46.642Z,3.60
2023-02-25T17:41:17.938Z,3.60
2023-02-25T17:43:44.970Z,3.70
2023-02-25T17:46:36.153Z,3.60
2023-02-25T17:49:05.872Z,3.60
2023-02-25T17:51:38.691Z,3.60
2023-02-25T17:54:08.954Z,3.60
2023-02-25T17:56:36.657Z,3.60
2023-02-25T18:01:44.823Z,3.50
2023-02-25T18:04:23.536Z,3.40
2023-02-25T18:09:40.904Z,3.50
2023-02-25T18:12:21.230Z,3.40
2023-02-25T18:14:54.279Z,3.50
2023-02-25T18:17:33.536Z,3.30
2023-02-25T18:20:03.611Z,3.50
2023-02-25T18:22:45.105Z,3.40
2023-02-25T18:25:32.910Z,3.40
2023-02-25T18:30:29.331Z,3.40
2023-02-25T18:32:59.138Z,3.20
2023-02-25T18:35:27.070Z,3.20
2023-02-25T18:37:55.865Z,3.20
2023-02-25T18:40:32.203Z,3.20
2023-02-25T18:42:59.984Z,3.20
2023-02-25T18:45:29.093Z,3.20
2023-02-25T18:48:02.415Z,3.20
2023-02-25T18:50:30.379Z,3.00
2023-02-25T18:52:57.070Z,3.10
2023-02-25T18:55:30.115Z,3.10
2023-02-25T19:00:27.275Z,3.10
2023-02-25T19:02:59.821Z,3.10
2023-02-25T19:05:27.566Z,3.10
2023-02-25T19:10:30.366Z,3.00
2023-02-25T19:13:13.377Z,3.00
2023-02-25T19:18:12.554Z,3.00
2023-02-25T19:23:06.278Z,3.00
2023-02-25T19:25:36.241Z,3.00
2023-02-25T19:28:04.513Z,3.00
2023-02-25T19:30:34.973Z,3.00
2023-02-25T19:33:04.962Z,3.00
2023-02-25T19:35:34.743Z,3.00
2023-02-25T19:40:29.358Z,3.00
2023-02-25T19:42:56.302Z,3.00
2023-02-25T19:45:24.066Z,3.00
2023-02-25T19:47:51.830Z,3.00
2023-02-25T19:50:20.345Z,2.90
2023-02-25T19:55:14.612Z,2.90
2023-02-25T20:00:13.753Z,2.80
2023-02-25T20:19:52.650Z,2.80
2023-02-25T20:24:50.946Z,2.80
2023-02-25T20:34:40.315Z,2.80
2023-02-25T20:37:31.272Z,2.70
2023-02-25T20:39:59.546Z,2.70
2023-02-25T20:42:29.867Z,2.50
2023-02-25T20:44:58.411Z,2.40
2023-02-25T20:49:53.473Z,2.50
2023-02-25T20:52:20.391Z,2.40
2023-02-25T20:54:48.721Z,2.40
2023-02-25T20:57:19.020Z,2.40
2023-02-25T21:02:14.681Z,2.30
2023-02-25T21:04:41.579Z,2.30
2023-02-25T21:09:35.371Z,2.30
2023-02-25T21:12:02.271Z,2.30
2023-02-25T21:16:56.017Z,2.20
2023-02-25T21:19:25.045Z,2.20
2023-02-25T21:21:52.298Z,2.30
2023-02-25T21:24:19.579Z,2.30
2023-02-25T21:26:46.587Z,2.30
2023-02-25T21:29:14.079Z,2.30
2023-02-25T21:31:41.480Z,2.30
2023-02-25T21:36:39.176Z,2.30
2023-02-25T21:39:06.917Z,2.30
2023-02-25T21:48:56.309Z,2.30
2023-02-25T21:51:26.048Z,2.30
2023-02-25T21:53:57.172Z,2.30
2023-02-25T21:56:25.663Z,2.20
2023-02-25T21:58:54.308Z,2.20
2023-02-25T22:01:24.454Z,2.10
2023-02-25T22:08:45.689Z,1.90
2023-02-25T22:11:14.353Z,1.90
2023-02-25T22:13:41.629Z,1.80
2023-02-25T22:16:08.568Z,1.70
2023-02-25T22:18:35.565Z,1.70
2023-02-25T22:21:11.612Z,1.60
2023-02-25T22:23:39.545Z,1.50
2023-02-25T22:26:08.586Z,1.50
2023-02-25T22:28:36.082Z,1.60
2023-02-25T22:31:03.441Z,1.50
2023-02-25T22:33:32.123Z,1.50
2023-02-25T22:36:01.039Z,1.50
2023-02-25T22:38:33.076Z,1.50
2023-02-25T22:43:29.255Z,1.50
2023-02-25T22:46:07.775Z,1.50
2023-02-25T22:48:36.310Z,1.50
2023-02-25T22:51:03.589Z,1.40
2023-02-25T22:53:30.629Z,1.40
2023-02-25T22:56:08.899Z,1.40
2023-02-25T22:58:38.640Z,0.90
2023-02-25T23:01:05.691Z,1.50
2023-02-25T23:08:27.040Z,2.30
2023-02-25T23:10:54.202Z,1.50
2023-02-25T23:18:16.067Z,1.40
2023-02-25T23:25:44.006Z,1.50
2023-02-25T23:30:38.708Z,1.50
2023-02-25T23:33:06.201Z,1.50
2023-02-25T23:35:33.837Z,1.50
2023-02-25T23:42:55.735Z,1.60
2023-02-25T23:52:46.468Z,1.50
2023-02-25T23:55:14.408Z,1.50
